sensor_id;sensor_type;location;lat;lon;timestamp;temperature;humidity
52125;DHT22;38119;52.710;6.398;2023-09-08T00:00:04;20.00;99.90
52125;DHT22;38119;52.710;6.398;2023-09-08T00:02:30;20.00;99.90
52125;DHT22;38119;52.710;6.398;2023-09-08T00:04:56;20.00;99.90
52125;DHT22;38119;52.710;6.398;2023-09-08T00:07:22;19.90;99.90
52125;DHT22;38119;52.710;6.398;2023-09-08T00:09:47;19.90;99.90
52125;DHT22;38119;52.710;6.398;2023-09-08T00:12:13;19.90;99.90
52125;DHT22;38119;52.710;6.398;2023-09-08T00:14:39;19.80;99.90
52125;DHT22;38119;52.710;6.398;2023-09-08T00:17:04;19.80;99.90
52125;DHT22;38119;52.710;6.398;2023-09-08T00:19:30;19.80;99.90
52125;DHT22;38119;52.710;6.398;2023-09-08T00:21:56;19.80;99.90
52125;DHT22;38119;52.710;6.398;2023-09-08T00:24:22;19.80;99.90
52125;DHT22;38119;52.710;6.398;2023-09-08T00:26:48;19.70;99.90
52125;DHT22;38119;52.710;6.398;2023-09-08T00:29:13;19.70;99.90
52125;DHT22;38119;52.710;6.398;2023-09-08T00:31:39;19.70;99.90
52125;DHT22;38119;52.710;6.398;2023-09-08T00:34:05;19.60;99.90
52125;DHT22;38119;52.710;6.398;2023-09-08T00:36:30;19.50;99.90
52125;DHT22;38119;52.710;6.398;2023-09-08T00:38:56;19.60;99.90
52125;DHT22;38119;52.710;6.398;2023-09-08T00:41:22;19.60;99.90
52125;DHT22;38119;52.710;6.398;2023-09-08T00:43:49;19.50;99.90
52125;DHT22;38119;52.710;6.398;2023-09-08T00:46:15;19.50;99.90
52125;DHT22;38119;52.710;6.398;2023-09-08T00:48:41;19.50;99.90
52125;DHT22;38119;52.710;6.398;2023-09-08T00:51:08;19.40;99.90
52125;DHT22;38119;52.710;6.398;2023-09-08T00:53:35;19.40;99.90
52125;DHT22;38119;52.710;6.398;2023-09-08T00:56:02;19.40;99.90
52125;DHT22;38119;52.710;6.398;2023-09-08T00:58:28;19.30;99.90
52125;DHT22;38119;52.710;6.398;2023-09-08T01:00:54;19.30;99.90
52125;DHT22;38119;52.710;6.398;2023-09-08T01:03:23;19.30;99.90
52125;DHT22;38119;52.710;6.398;2023-09-08T01:05:49;19.30;99.90
52125;DHT22;38119;52.710;6.398;2023-09-08T01:08:15;19.30;99.90
52125;DHT22;38119;52.710;6.398;2023-09-08T01:10:41;19.30;99.90
52125;DHT22;38119;52.710;6.398;2023-09-08T01:13:07;19.30;99.90
52125;DHT22;38119;52.710;6.398;2023-09-08T01:15:33;19.30;99.90
52125;DHT22;38119;52.710;6.398;2023-09-08T01:17:58;19.20;99.90
52125;DHT22;38119;52.710;6.398;2023-09-08T01:20:29;19.20;99.90
52125;DHT22;38119;52.710;6.398;2023-09-08T01:25:57;19.20;99.90
52125;DHT22;38119;52.710;6.398;2023-09-08T01:28:25;19.10;99.90
52125;DHT22;38119;52.710;6.398;2023-09-08T01:30:52;19.10;99.90
52125;DHT22;38119;52.710;6.398;2023-09-08T01:33:19;19.10;99.90
52125;DHT22;38119;52.710;6.398;2023-09-08T01:35:46;19.00;99.90
52125;DHT22;38119;52.710;6.398;2023-09-08T01:38:12;18.90;99.90
52125;DHT22;38119;52.710;6.398;2023-09-08T01:40:37;19.00;99.90
52125;DHT22;38119;52.710;6.398;2023-09-08T01:43:03;19.00;99.90
52125;DHT22;38119;52.710;6.398;2023-09-08T01:45:28;18.90;99.90
52125;DHT22;38119;52.710;6.398;2023-09-08T01:47:54;18.90;99.90
52125;DHT22;38119;52.710;6.398;2023-09-08T01:50:20;18.90;99.90
52125;DHT22;38119;52.710;6.398;2023-09-08T01:52:48;18.90;99.90
52125;DHT22;38119;52.710;6.398;2023-09-08T01:55:14;18.90;99.90
52125;DHT22;38119;52.710;6.398;2023-09-08T01:57:40;18.90;99.90
52125;DHT22;38119;52.710;6.398;2023-09-08T02:00:06;18.80;99.90
52125;DHT22;38119;52.710;6.398;2023-09-08T02:02:32;18.80;99.90
52125;DHT22;38119;52.710;6.398;2023-09-08T02:04:57;18.80;99.90
52125;DHT22;38119;52.710;6.398;2023-09-08T02:07:23;18.80;99.90
52125;DHT22;38119;52.710;6.398;2023-09-08T02:09:48;18.80;99.90
52125;DHT22;38119;52.710;6.398;2023-09-08T02:12:14;18.70;99.90
52125;DHT22;38119;52.710;6.398;2023-09-08T02:14:40;18.70;99.90
52125;DHT22;38119;52.710;6.398;2023-09-08T02:17:05;18.70;99.90
52125;DHT22;38119;52.710;6.398;2023-09-08T02:19:31;18.70;99.90
52125;DHT22;38119;52.710;6.398;2023-09-08T02:21:57;18.70;99.90
52125;DHT22;38119;52.710;6.398;2023-09-08T02:24:23;18.60;99.90
52125;DHT22;38119;52.710;6.398;2023-09-08T02:26:48;18.50;99.90
52125;DHT22;38119;52.710;6.398;2023-09-08T02:29:14;18.60;99.90
52125;DHT22;38119;52.710;6.398;2023-09-08T02:31:40;18.60;99.90
52125;DHT22;38119;52.710;6.398;2023-09-08T02:34:05;18.60;99.90
52125;DHT22;38119;52.710;6.398;2023-09-08T02:36:31;18.60;99.90
52125;DHT22;38119;52.710;6.398;2023-09-08T02:38:57;18.60;99.90
52125;DHT22;38119;52.710;6.398;2023-09-08T02:41:23;18.60;99.90
52125;DHT22;38119;52.710;6.398;2023-09-08T02:43:49;18.50;99.90
52125;DHT22;38119;52.710;6.398;2023-09-08T02:46:15;18.50;99.90
52125;DHT22;38119;52.710;6.398;2023-09-08T02:48:41;18.50;99.90
52125;DHT22;38119;52.710;6.398;2023-09-08T02:51:06;18.50;99.90
52125;DHT22;38119;52.710;6.398;2023-09-08T02:53:32;18.50;99.90
52125;DHT22;38119;52.710;6.398;2023-09-08T02:55:58;18.40;99.90
52125;DHT22;38119;52.710;6.398;2023-09-08T02:58:25;18.40;99.90
52125;DHT22;38119;52.710;6.398;2023-09-08T03:00:50;18.40;99.90
52125;DHT22;38119;52.710;6.398;2023-09-08T03:03:21;18.40;99.90
52125;DHT22;38119;52.710;6.398;2023-09-08T03:05:47;18.40;99.90
52125;DHT22;38119;52.710;6.398;2023-09-08T03:08:12;18.40;99.90
52125;DHT22;38119;52.710;6.398;2023-09-08T03:10:38;18.40;99.90
52125;DHT22;38119;52.710;6.398;2023-09-08T03:13:04;18.30;99.90
52125;DHT22;38119;52.710;6.398;2023-09-08T03:15:30;18.30;99.90
52125;DHT22;38119;52.710;6.398;2023-09-08T03:17:56;18.30;99.90
52125;DHT22;38119;52.710;6.398;2023-09-08T03:20:24;18.30;99.90
52125;DHT22;38119;52.710;6.398;2023-09-08T03:22:51;18.30;99.90
52125;DHT22;38119;52.710;6.398;2023-09-08T03:25:17;18.30;99.90
52125;DHT22;38119;52.710;6.398;2023-09-08T03:27:42;18.30;99.90
52125;DHT22;38119;52.710;6.398;2023-09-08T03:30:08;18.30;99.90
52125;DHT22;38119;52.710;6.398;2023-09-08T03:32:34;18.20;99.90
52125;DHT22;38119;52.710;6.398;2023-09-08T03:35:00;18.10;99.90
52125;DHT22;38119;52.710;6.398;2023-09-08T03:37:25;18.20;99.90
52125;DHT22;38119;52.710;6.398;2023-09-08T03:39:53;18.20;99.90
52125;DHT22;38119;52.710;6.398;2023-09-08T03:42:19;18.20;99.90
52125;DHT22;38119;52.710;6.398;2023-09-08T03:44:45;18.10;99.90
52125;DHT22;38119;52.710;6.398;2023-09-08T03:47:10;18.10;99.90
52125;DHT22;38119;52.710;6.398;2023-09-08T03:49:36;18.10;99.90
52125;DHT22;38119;52.710;6.398;2023-09-08T03:52:02;18.10;99.90
52125;DHT22;38119;52.710;6.398;2023-09-08T03:54:27;18.10;99.90
52125;DHT22;38119;52.710;6.398;2023-09-08T03:56:53;18.10;99.90
52125;DHT22;38119;52.710;6.398;2023-09-08T03:59:19;17.90;99.90
52125;DHT22;38119;52.710;6.398;2023-09-08T04:01:44;18.00;99.90
52125;DHT22;38119;52.710;6.398;2023-09-08T04:04:10;18.00;99.90
52125;DHT22;38119;52.710;6.398;2023-09-08T04:06:35;18.00;99.90
52125;DHT22;38119;52.710;6.398;2023-09-08T04:09:01;18.00;99.90
52125;DHT22;38119;52.710;6.398;2023-09-08T04:11:26;18.00;99.90
52125;DHT22;38119;52.710;6.398;2023-09-08T04:13:52;17.90;99.90
52125;DHT22;38119;52.710;6.398;2023-09-08T04:16:18;18.00;99.90
52125;DHT22;38119;52.710;6.398;2023-09-08T04:18:43;17.90;99.90
52125;DHT22;38119;52.710;6.398;2023-09-08T04:21:10;17.90;99.90
52125;DHT22;38119;52.710;6.398;2023-09-08T04:23:35;17.90;99.90
52125;DHT22;38119;52.710;6.398;2023-09-08T04:26:01;17.80;99.90
52125;DHT22;38119;52.710;6.398;2023-09-08T04:28:26;17.80;99.90
52125;DHT22;38119;52.710;6.398;2023-09-08T04:30:52;17.80;99.90
52125;DHT22;38119;52.710;6.398;2023-09-08T04:33:18;17.80;99.90
52125;DHT22;38119;52.710;6.398;2023-09-08T04:35:43;17.80;99.90
52125;DHT22;38119;52.710;6.398;2023-09-08T04:38:09;17.70;99.90
52125;DHT22;38119;52.710;6.398;2023-09-08T04:40:34;17.70;99.90
52125;DHT22;38119;52.710;6.398;2023-09-08T04:43:00;17.70;99.90
52125;DHT22;38119;52.710;6.398;2023-09-08T04:45:26;17.70;99.90
52125;DHT22;38119;52.710;6.398;2023-09-08T04:47:51;17.70;99.90
52125;DHT22;38119;52.710;6.398;2023-09-08T04:50:17;17.60;99.90
52125;DHT22;38119;52.710;6.398;2023-09-08T04:52:43;17.60;99.90
52125;DHT22;38119;52.710;6.398;2023-09-08T04:55:09;17.60;99.90
52125;DHT22;38119;52.710;6.398;2023-09-08T04:57:35;17.60;99.90
52125;DHT22;38119;52.710;6.398;2023-09-08T05:00:01;17.60;99.90
52125;DHT22;38119;52.710;6.398;2023-09-08T05:02:27;17.60;99.90
52125;DHT22;38119;52.710;6.398;2023-09-08T05:04:52;17.50;99.90
52125;DHT22;38119;52.710;6.398;2023-09-08T05:07:18;17.50;99.90
52125;DHT22;38119;52.710;6.398;2023-09-08T05:09:44;17.50;99.90
52125;DHT22;38119;52.710;6.398;2023-09-08T05:12:10;17.50;99.90
52125;DHT22;38119;52.710;6.398;2023-09-08T05:14:35;17.50;99.90
52125;DHT22;38119;52.710;6.398;2023-09-08T05:17:01;17.50;99.90
52125;DHT22;38119;52.710;6.398;2023-09-08T05:19:26;17.50;99.90
52125;DHT22;38119;52.710;6.398;2023-09-08T05:21:54;17.50;99.90
52125;DHT22;38119;52.710;6.398;2023-09-08T05:24:20;17.50;99.90
52125;DHT22;38119;52.710;6.398;2023-09-08T05:26:46;17.40;99.90
52125;DHT22;38119;52.710;6.398;2023-09-08T05:29:12;17.40;99.90
52125;DHT22;38119;52.710;6.398;2023-09-08T05:31:38;17.50;99.90
52125;DHT22;38119;52.710;6.398;2023-09-08T05:34:04;17.40;99.90
52125;DHT22;38119;52.710;6.398;2023-09-08T05:36:29;17.40;99.90
52125;DHT22;38119;52.710;6.398;2023-09-08T05:38:56;17.40;99.90
52125;DHT22;38119;52.710;6.398;2023-09-08T05:41:22;17.40;99.90
52125;DHT22;38119;52.710;6.398;2023-09-08T05:43:48;17.40;99.90
52125;DHT22;38119;52.710;6.398;2023-09-08T05:46:13;17.40;99.90
52125;DHT22;38119;52.710;6.398;2023-09-08T05:48:39;17.40;99.90
52125;DHT22;38119;52.710;6.398;2023-09-08T05:51:05;17.40;99.90
52125;DHT22;38119;52.710;6.398;2023-09-08T05:53:32;17.40;99.90
52125;DHT22;38119;52.710;6.398;2023-09-08T05:55:58;17.40;99.90
52125;DHT22;38119;52.710;6.398;2023-09-08T05:58:24;17.40;99.90
52125;DHT22;38119;52.710;6.398;2023-09-08T06:00:53;17.40;99.90
52125;DHT22;38119;52.710;6.398;2023-09-08T06:03:19;17.50;99.90
52125;DHT22;38119;52.710;6.398;2023-09-08T06:05:44;17.40;99.90
52125;DHT22;38119;52.710;6.398;2023-09-08T06:08:10;17.40;99.90
52125;DHT22;38119;52.710;6.398;2023-09-08T06:10:36;17.50;99.90
52125;DHT22;38119;52.710;6.398;2023-09-08T06:13:01;17.40;99.90
52125;DHT22;38119;52.710;6.398;2023-09-08T06:15:27;17.50;99.90
52125;DHT22;38119;52.710;6.398;2023-09-08T06:17:52;17.40;99.90
52125;DHT22;38119;52.710;6.398;2023-09-08T06:20:18;17.50;99.90
52125;DHT22;38119;52.710;6.398;2023-09-08T06:22:43;17.50;99.90
52125;DHT22;38119;52.710;6.398;2023-09-08T06:25:09;17.50;99.90
52125;DHT22;38119;52.710;6.398;2023-09-08T06:27:35;17.60;99.90
52125;DHT22;38119;52.710;6.398;2023-09-08T06:30:00;17.60;99.90
52125;DHT22;38119;52.710;6.398;2023-09-08T06:32:26;17.70;99.90
52125;DHT22;38119;52.710;6.398;2023-09-08T06:34:52;17.70;99.90
52125;DHT22;38119;52.710;6.398;2023-09-08T06:37:17;17.70;99.90
52125;DHT22;38119;52.710;6.398;2023-09-08T06:39:43;17.70;99.90
52125;DHT22;38119;52.710;6.398;2023-09-08T06:42:08;17.70;99.90
52125;DHT22;38119;52.710;6.398;2023-09-08T06:44:34;17.80;99.90
52125;DHT22;38119;52.710;6.398;2023-09-08T06:46:59;17.80;99.90
52125;DHT22;38119;52.710;6.398;2023-09-08T06:49:25;17.80;99.90
52125;DHT22;38119;52.710;6.398;2023-09-08T06:51:51;17.80;99.90
52125;DHT22;38119;52.710;6.398;2023-09-08T06:54:16;17.90;99.90
52125;DHT22;38119;52.710;6.398;2023-09-08T06:56:42;17.90;99.90
52125;DHT22;38119;52.710;6.398;2023-09-08T06:59:08;17.90;99.90
52125;DHT22;38119;52.710;6.398;2023-09-08T07:01:34;18.00;99.90
52125;DHT22;38119;52.710;6.398;2023-09-08T07:04:00;18.00;99.90
52125;DHT22;38119;52.710;6.398;2023-09-08T07:06:25;18.10;99.90
52125;DHT22;38119;52.710;6.398;2023-09-08T07:08:51;18.10;99.90
52125;DHT22;38119;52.710;6.398;2023-09-08T07:11:17;18.10;99.90
52125;DHT22;38119;52.710;6.398;2023-09-08T07:13:42;18.20;99.90
52125;DHT22;38119;52.710;6.398;2023-09-08T07:16:08;18.30;99.90
52125;DHT22;38119;52.710;6.398;2023-09-08T07:18:34;18.30;99.90
52125;DHT22;38119;52.710;6.398;2023-09-08T07:21:02;18.30;99.90
52125;DHT22;38119;52.710;6.398;2023-09-08T07:23:28;18.40;99.90
52125;DHT22;38119;52.710;6.398;2023-09-08T07:25:53;18.40;99.90
52125;DHT22;38119;52.710;6.398;2023-09-08T07:28:19;18.40;99.90
52125;DHT22;38119;52.710;6.398;2023-09-08T07:30:45;18.50;99.90
52125;DHT22;38119;52.710;6.398;2023-09-08T07:33:11;18.50;99.90
52125;DHT22;38119;52.710;6.398;2023-09-08T07:35:38;18.60;99.90
52125;DHT22;38119;52.710;6.398;2023-09-08T07:38:04;18.70;99.90
52125;DHT22;38119;52.710;6.398;2023-09-08T07:40:32;18.80;99.90
52125;DHT22;38119;52.710;6.398;2023-09-08T07:42:57;18.90;99.90
52125;DHT22;38119;52.710;6.398;2023-09-08T07:45:23;18.90;99.90
52125;DHT22;38119;52.710;6.398;2023-09-08T07:47:48;19.00;99.90
52125;DHT22;38119;52.710;6.398;2023-09-08T07:50:26;19.10;99.90
52125;DHT22;38119;52.710;6.398;2023-09-08T07:52:54;19.20;99.90
52125;DHT22;38119;52.710;6.398;2023-09-08T07:55:20;19.10;99.90
52125;DHT22;38119;52.710;6.398;2023-09-08T07:57:50;19.30;99.90
52125;DHT22;38119;52.710;6.398;2023-09-08T08:00:16;19.30;99.90
52125;DHT22;38119;52.710;6.398;2023-09-08T08:02:45;19.40;99.90
52125;DHT22;38119;52.710;6.398;2023-09-08T08:05:11;19.50;99.90
52125;DHT22;38119;52.710;6.398;2023-09-08T08:07:38;19.70;99.90
52125;DHT22;38119;52.710;6.398;2023-09-08T08:10:07;19.70;99.90
52125;DHT22;38119;52.710;6.398;2023-09-08T08:12:34;19.80;99.90
52125;DHT22;38119;52.710;6.398;2023-09-08T08:15:00;19.90;99.90
52125;DHT22;38119;52.710;6.398;2023-09-08T08:17:25;20.00;99.90
52125;DHT22;38119;52.710;6.398;2023-09-08T08:19:54;20.10;99.90
52125;DHT22;38119;52.710;6.398;2023-09-08T08:22:19;20.20;99.90
52125;DHT22;38119;52.710;6.398;2023-09-08T08:24:45;20.30;99.90
52125;DHT22;38119;52.710;6.398;2023-09-08T08:27:11;20.40;99.90
52125;DHT22;38119;52.710;6.398;2023-09-08T08:29:37;20.40;99.90
52125;DHT22;38119;52.710;6.398;2023-09-08T08:32:02;20.50;99.90
52125;DHT22;38119;52.710;6.398;2023-09-08T08:34:28;20.60;99.90
52125;DHT22;38119;52.710;6.398;2023-09-08T08:36:54;20.70;99.90
52125;DHT22;38119;52.710;6.398;2023-09-08T08:39:19;20.80;99.90
52125;DHT22;38119;52.710;6.398;2023-09-08T08:41:45;20.90;99.90
52125;DHT22;38119;52.710;6.398;2023-09-08T08:44:11;20.90;99.90
52125;DHT22;38119;52.710;6.398;2023-09-08T08:46:37;21.00;99.90
52125;DHT22;38119;52.710;6.398;2023-09-08T08:49:04;21.10;99.90
52125;DHT22;38119;52.710;6.398;2023-09-08T08:51:30;21.20;99.90
52125;DHT22;38119;52.710;6.398;2023-09-08T08:53:57;21.30;99.90
52125;DHT22;38119;52.710;6.398;2023-09-08T08:56:23;21.50;99.90
52125;DHT22;38119;52.710;6.398;2023-09-08T08:58:50;21.50;99.90
52125;DHT22;38119;52.710;6.398;2023-09-08T09:01:16;21.60;99.90
52125;DHT22;38119;52.710;6.398;2023-09-08T09:03:43;21.80;99.90
52125;DHT22;38119;52.710;6.398;2023-09-08T09:06:10;21.90;99.90
52125;DHT22;38119;52.710;6.398;2023-09-08T09:08:35;22.10;99.90
52125;DHT22;38119;52.710;6.398;2023-09-08T09:11:02;22.30;99.90
52125;DHT22;38119;52.710;6.398;2023-09-08T09:13:28;22.50;99.90
52125;DHT22;38119;52.710;6.398;2023-09-08T09:15:58;22.70;99.90
52125;DHT22;38119;52.710;6.398;2023-09-08T09:18:25;23.00;99.90
52125;DHT22;38119;52.710;6.398;2023-09-08T09:20:55;23.20;99.90
52125;DHT22;38119;52.710;6.398;2023-09-08T09:23:34;23.50;99.90
52125;DHT22;38119;52.710;6.398;2023-09-08T09:26:00;23.70;99.90
52125;DHT22;38119;52.710;6.398;2023-09-08T09:28:28;24.00;99.90
52125;DHT22;38119;52.710;6.398;2023-09-08T09:30:53;24.20;99.90
52125;DHT22;38119;52.710;6.398;2023-09-08T09:33:22;24.40;99.90
52125;DHT22;38119;52.710;6.398;2023-09-08T09:35:52;24.60;99.90
52125;DHT22;38119;52.710;6.398;2023-09-08T09:38:18;24.80;99.90
52125;DHT22;38119;52.710;6.398;2023-09-08T09:40:45;24.90;99.90
52125;DHT22;38119;52.710;6.398;2023-09-08T09:43:13;25.10;99.90
52125;DHT22;38119;52.710;6.398;2023-09-08T09:45:41;25.30;99.90
52125;DHT22;38119;52.710;6.398;2023-09-08T09:48:09;25.50;99.90
52125;DHT22;38119;52.710;6.398;2023-09-08T09:50:35;25.70;99.90
52125;DHT22;38119;52.710;6.398;2023-09-08T09:53:12;25.90;99.90
52125;DHT22;38119;52.710;6.398;2023-09-08T09:55:40;26.10;99.90
52125;DHT22;38119;52.710;6.398;2023-09-08T09:58:06;26.30;99.90
52125;DHT22;38119;52.710;6.398;2023-09-08T10:00:33;26.50;99.90
52125;DHT22;38119;52.710;6.398;2023-09-08T10:02:59;26.60;99.90
52125;DHT22;38119;52.710;6.398;2023-09-08T10:05:25;26.70;99.90
52125;DHT22;38119;52.710;6.398;2023-09-08T10:07:51;26.80;99.90
52125;DHT22;38119;52.710;6.398;2023-09-08T10:10:17;27.00;99.90
52125;DHT22;38119;52.710;6.398;2023-09-08T10:12:44;27.20;99.90
52125;DHT22;38119;52.710;6.398;2023-09-08T10:15:11;27.40;99.90
52125;DHT22;38119;52.710;6.398;2023-09-08T10:17:38;27.50;99.90
52125;DHT22;38119;52.710;6.398;2023-09-08T10:20:08;27.60;99.90
52125;DHT22;38119;52.710;6.398;2023-09-08T10:22:38;27.70;99.90
52125;DHT22;38119;52.710;6.398;2023-09-08T10:25:08;27.90;99.90
52125;DHT22;38119;52.710;6.398;2023-09-08T10:27:34;28.00;99.90
52125;DHT22;38119;52.710;6.398;2023-09-08T10:30:02;28.20;99.90
52125;DHT22;38119;52.710;6.398;2023-09-08T10:32:31;28.20;99.90
52125;DHT22;38119;52.710;6.398;2023-09-08T10:34:59;28.30;99.90
52125;DHT22;38119;52.710;6.398;2023-09-08T10:37:26;28.40;99.70
52125;DHT22;38119;52.710;6.398;2023-09-08T10:40:24;28.50;99.00
52125;DHT22;38119;52.710;6.398;2023-09-08T10:43:08;28.50;97.80
52125;DHT22;38119;52.710;6.398;2023-09-08T10:45:34;28.60;97.90
52125;DHT22;38119;52.710;6.398;2023-09-08T10:48:00;28.70;98.00
52125;DHT22;38119;52.710;6.398;2023-09-08T10:50:30;28.70;98.20
52125;DHT22;38119;52.710;6.398;2023-09-08T10:53:17;28.80;97.10
52125;DHT22;38119;52.710;6.398;2023-09-08T10:55:50;28.90;97.00
52125;DHT22;38119;52.710;6.398;2023-09-08T10:58:37;29.00;96.90
52125;DHT22;38119;52.710;6.398;2023-09-08T11:01:12;29.10;96.20
52125;DHT22;38119;52.710;6.398;2023-09-08T11:06:04;29.20;96.80
52125;DHT22;38119;52.710;6.398;2023-09-08T11:08:30;29.30;96.90
52125;DHT22;38119;52.710;6.398;2023-09-08T11:10:56;29.40;96.50
52125;DHT22;38119;52.710;6.398;2023-09-08T11:13:22;29.60;96.50
52125;DHT22;38119;52.710;6.398;2023-09-08T11:15:51;29.80;96.40
52125;DHT22;38119;52.710;6.398;2023-09-08T11:18:17;29.90;95.80
52125;DHT22;38119;52.710;6.398;2023-09-08T11:20:42;29.90;95.20
52125;DHT22;38119;52.710;6.398;2023-09-08T11:23:10;30.00;94.60
52125;DHT22;38119;52.710;6.398;2023-09-08T11:25:35;29.90;94.10
52125;DHT22;38119;52.710;6.398;2023-09-08T11:28:01;30.10;94.50
52125;DHT22;38119;52.710;6.398;2023-09-08T11:30:28;30.10;94.40
52125;DHT22;38119;52.710;6.398;2023-09-08T11:32:53;30.10;94.00
52125;DHT22;38119;52.710;6.398;2023-09-08T11:35:19;30.00;94.20
52125;DHT22;38119;52.710;6.398;2023-09-08T11:37:46;30.00;94.30
52125;DHT22;38119;52.710;6.398;2023-09-08T11:40:12;30.10;94.20
52125;DHT22;38119;52.710;6.398;2023-09-08T11:42:43;30.20;93.50
52125;DHT22;38119;52.710;6.398;2023-09-08T11:45:13;30.20;93.00
52125;DHT22;38119;52.710;6.398;2023-09-08T11:47:43;30.20;92.20
52125;DHT22;38119;52.710;6.398;2023-09-08T11:50:13;30.20;91.90
52125;DHT22;38119;52.710;6.398;2023-09-08T11:52:51;30.30;90.20
52125;DHT22;38119;52.710;6.398;2023-09-08T11:55:18;30.40;87.10
52125;DHT22;38119;52.710;6.398;2023-09-08T11:57:50;30.40;87.80
52125;DHT22;38119;52.710;6.398;2023-09-08T12:00:20;30.40;89.30
52125;DHT22;38119;52.710;6.398;2023-09-08T12:02:49;30.40;89.50
52125;DHT22;38119;52.710;6.398;2023-09-08T12:05:27;30.60;89.60
52125;DHT22;38119;52.710;6.398;2023-09-08T12:07:55;30.70;90.10
52125;DHT22;38119;52.710;6.398;2023-09-08T12:10:22;30.70;88.20
52125;DHT22;38119;52.710;6.398;2023-09-08T12:12:56;30.80;86.80
52125;DHT22;38119;52.710;6.398;2023-09-08T12:18:08;30.60;79.30
52125;DHT22;38119;52.710;6.398;2023-09-08T12:20:34;30.50;82.80
52125;DHT22;38119;52.710;6.398;2023-09-08T12:23:05;30.50;81.50
52125;DHT22;38119;52.710;6.398;2023-09-08T12:25:33;30.50;81.70
52125;DHT22;38119;52.710;6.398;2023-09-08T12:28:00;30.40;81.80
52125;DHT22;38119;52.710;6.398;2023-09-08T12:30:27;30.50;80.50
52125;DHT22;38119;52.710;6.398;2023-09-08T12:32:59;30.50;80.20
52125;DHT22;38119;52.710;6.398;2023-09-08T12:35:25;30.40;81.20
52125;DHT22;38119;52.710;6.398;2023-09-08T12:37:59;30.40;82.90
52125;DHT22;38119;52.710;6.398;2023-09-08T12:40:29;30.50;82.70
52125;DHT22;38119;52.710;6.398;2023-09-08T12:42:55;30.60;82.10
52125;DHT22;38119;52.710;6.398;2023-09-08T12:45:22;30.60;82.30
52125;DHT22;38119;52.710;6.398;2023-09-08T12:47:50;30.70;83.20
52125;DHT22;38119;52.710;6.398;2023-09-08T12:50:16;30.70;81.00
52125;DHT22;38119;52.710;6.398;2023-09-08T12:52:42;30.70;80.10
52125;DHT22;38119;52.710;6.398;2023-09-08T12:55:08;30.70;81.70
52125;DHT22;38119;52.710;6.398;2023-09-08T12:57:35;30.80;83.30
52125;DHT22;38119;52.710;6.398;2023-09-08T13:00:01;30.90;83.30
52125;DHT22;38119;52.710;6.398;2023-09-08T13:02:27;30.90;82.20
52125;DHT22;38119;52.710;6.398;2023-09-08T13:04:52;30.90;79.20
52125;DHT22;38119;52.710;6.398;2023-09-08T13:07:18;30.80;78.90
52125;DHT22;38119;52.710;6.398;2023-09-08T13:09:44;30.80;78.40
52125;DHT22;38119;52.710;6.398;2023-09-08T13:12:10;30.80;78.40
52125;DHT22;38119;52.710;6.398;2023-09-08T13:14:38;30.90;75.80
52125;DHT22;38119;52.710;6.398;2023-09-08T13:17:03;30.80;76.60
52125;DHT22;38119;52.710;6.398;2023-09-08T13:19:29;30.70;78.50
52125;DHT22;38119;52.710;6.398;2023-09-08T13:21:55;30.70;78.30
52125;DHT22;38119;52.710;6.398;2023-09-08T13:24:21;30.60;75.60
52125;DHT22;38119;52.710;6.398;2023-09-08T13:26:47;30.60;74.80
52125;DHT22;38119;52.710;6.398;2023-09-08T13:29:13;30.60;75.70
52125;DHT22;38119;52.710;6.398;2023-09-08T13:31:39;30.70;77.30
52125;DHT22;38119;52.710;6.398;2023-09-08T13:34:04;30.80;77.30
52125;DHT22;38119;52.710;6.398;2023-09-08T13:36:30;30.80;75.90
52125;DHT22;38119;52.710;6.398;2023-09-08T13:38:56;30.80;75.50
52125;DHT22;38119;52.710;6.398;2023-09-08T13:41:22;30.80;76.30
52125;DHT22;38119;52.710;6.398;2023-09-08T13:43:47;30.80;75.90
52125;DHT22;38119;52.710;6.398;2023-09-08T13:46:13;30.70;75.90
52125;DHT22;38119;52.710;6.398;2023-09-08T13:48:39;30.90;76.10
52125;DHT22;38119;52.710;6.398;2023-09-08T13:51:05;30.70;75.80
52125;DHT22;38119;52.710;6.398;2023-09-08T13:53:30;30.70;76.40
52125;DHT22;38119;52.710;6.398;2023-09-08T13:55:56;30.70;77.10
52125;DHT22;38119;52.710;6.398;2023-09-08T13:58:22;30.70;77.10
52125;DHT22;38119;52.710;6.398;2023-09-08T14:00:48;30.70;78.00
52125;DHT22;38119;52.710;6.398;2023-09-08T14:03:19;30.60;78.50
52125;DHT22;38119;52.710;6.398;2023-09-08T14:05:45;30.60;79.50
52125;DHT22;38119;52.710;6.398;2023-09-08T14:08:10;30.50;81.10
52125;DHT22;38119;52.710;6.398;2023-09-08T14:10:36;30.60;82.90
52125;DHT22;38119;52.710;6.398;2023-09-08T14:13:02;30.50;82.80
52125;DHT22;38119;52.710;6.398;2023-09-08T14:15:27;30.50;83.10
52125;DHT22;38119;52.710;6.398;2023-09-08T14:17:53;30.50;83.20
52125;DHT22;38119;52.710;6.398;2023-09-08T14:20:19;30.50;84.00
52125;DHT22;38119;52.710;6.398;2023-09-08T14:22:44;30.50;83.90
52125;DHT22;38119;52.710;6.398;2023-09-08T14:25:10;30.50;82.90
52125;DHT22;38119;52.710;6.398;2023-09-08T14:27:36;30.50;83.10
52125;DHT22;38119;52.710;6.398;2023-09-08T14:30:03;30.60;84.10
52125;DHT22;38119;52.710;6.398;2023-09-08T14:32:29;30.60;83.70
52125;DHT22;38119;52.710;6.398;2023-09-08T14:34:55;30.60;83.80
52125;DHT22;38119;52.710;6.398;2023-09-08T14:37:21;30.50;84.00
52125;DHT22;38119;52.710;6.398;2023-09-08T14:39:48;30.50;82.80
52125;DHT22;38119;52.710;6.398;2023-09-08T14:42:13;30.50;83.20
52125;DHT22;38119;52.710;6.398;2023-09-08T14:44:41;30.40;82.10
52125;DHT22;38119;52.710;6.398;2023-09-08T14:47:06;30.50;81.60
52125;DHT22;38119;52.710;6.398;2023-09-08T14:49:32;30.40;80.90
52125;DHT22;38119;52.710;6.398;2023-09-08T14:51:58;30.40;82.00
52125;DHT22;38119;52.710;6.398;2023-09-08T14:54:24;30.40;82.60
52125;DHT22;38119;52.710;6.398;2023-09-08T14:56:51;30.50;82.70
52125;DHT22;38119;52.710;6.398;2023-09-08T14:59:16;30.50;82.80
52125;DHT22;38119;52.710;6.398;2023-09-08T15:01:42;30.40;81.90
52125;DHT22;38119;52.710;6.398;2023-09-08T15:04:10;30.30;82.40
52125;DHT22;38119;52.710;6.398;2023-09-08T15:06:36;30.30;83.10
52125;DHT22;38119;52.710;6.398;2023-09-08T15:09:02;30.30;84.10
52125;DHT22;38119;52.710;6.398;2023-09-08T15:11:27;30.30;85.80
52125;DHT22;38119;52.710;6.398;2023-09-08T15:13:53;30.30;86.50
52125;DHT22;38119;52.710;6.398;2023-09-08T15:16:19;30.20;84.80
52125;DHT22;38119;52.710;6.398;2023-09-08T15:18:44;30.20;83.70
52125;DHT22;38119;52.710;6.398;2023-09-08T15:21:10;30.20;82.80
52125;DHT22;38119;52.710;6.398;2023-09-08T15:23:35;30.20;83.90
52125;DHT22;38119;52.710;6.398;2023-09-08T15:26:01;30.20;85.80
52125;DHT22;38119;52.710;6.398;2023-09-08T15:28:27;30.20;85.50
52125;DHT22;38119;52.710;6.398;2023-09-08T15:30:54;30.20;85.50
52125;DHT22;38119;52.710;6.398;2023-09-08T15:33:20;30.20;84.90